createdAt,value
2023-03-26T00:02:05.969Z,12.20
2023-03-26T00:04:34.685Z,12.20
2023-03-26T00:07:05.125Z,12.20
2023-03-26T00:09:33.092Z,12.20
2023-03-26T00:12:01.194Z,12.20
2023-03-26T00:14:30.395Z,12.20
2023-03-26T00:16:58.597Z,12.20
2023-03-26T00:19:27.900Z,12.30
2023-03-26T00:21:57.765Z,12.30
2023-03-26T00:24:29.615Z,12.30
2023-03-26T00:26:57.755Z,12.30
2023-03-26T00:29:28.047Z,12.30
2023-03-26T00:31:56.186Z,12.20
2023-03-26T00:34:24.784Z,12.30
2023-03-26T00:36:54.497Z,12.30
2023-03-26T00:39:23.747Z,12.30
2023-03-26T00:41:54.453Z,12.30
2023-03-26T00:44:22.929Z,12.30
2023-03-26T00:46:51.214Z,12.30
2023-03-26T00:49:19.110Z,12.30
2023-03-26T00:51:47.326Z,12.30
2023-03-26T00:54:15.712Z,12.40
2023-03-26T00:56:44.139Z,12.40
2023-03-26T00:59:13.432Z,12.30
2023-03-26T01:01:41.916Z,12.40
2023-03-26T01:04:28.108Z,12.40
2023-03-26T01:06:59.647Z,12.40
2023-03-26T01:09:35.746Z,12.40
2023-03-26T01:12:06.792Z,12.40
2023-03-26T01:14:36.566Z,12.40
2023-03-26T01:17:07.962Z,12.40
2023-03-26T01:19:44.750Z,12.40
2023-03-26T01:22:18.081Z,12.30
2023-03-26T01:24:53.153Z,12.40
2023-03-26T01:27:32.133Z,12.40
2023-03-26T01:30:06.786Z,12.30
2023-03-26T01:32:59.565Z,12.30
2023-03-26T01:35:38.547Z,12.20
2023-03-26T01:38:18.799Z,12.20
2023-03-26T01:40:53.393Z,12.20
2023-03-26T01:43:32.599Z,12.10
2023-03-26T01:46:03.760Z,12.10
2023-03-26T01:48:34.659Z,12.10
2023-03-26T01:51:02.764Z,12.10
2023-03-26T01:53:31.733Z,12.20
2023-03-26T01:56:13.307Z,12.10
2023-03-26T01:58:53.194Z,12.10
2023-03-26T02:01:30.270Z,12.20
2023-03-26T02:04:07.418Z,12.10
2023-03-26T02:06:45.179Z,12.10
2023-03-26T02:09:18.706Z,12.10
2023-03-26T02:11:49.086Z,12.10
2023-03-26T02:14:17.837Z,12.10
2023-03-26T02:16:47.954Z,12.10
2023-03-26T02:19:21.522Z,12.10
2023-03-26T02:21:51.472Z,12.10
2023-03-26T02:24:20.902Z,12.10
2023-03-26T02:26:53.356Z,12.10
2023-03-26T02:29:22.215Z,12.10
2023-03-26T02:31:51.169Z,12.00
2023-03-26T02:34:19.323Z,12.00
2023-03-26T02:36:51.815Z,12.00
2023-03-26T02:39:20.970Z,12.00
2023-03-26T02:42:05.334Z,12.00
2023-03-26T02:44:40.725Z,12.00
2023-03-26T02:47:20.909Z,12.00
2023-03-26T02:49:54.723Z,12.00
2023-03-26T02:52:54.387Z,11.90
2023-03-26T02:55:22.609Z,11.90
2023-03-26T02:57:54.180Z,11.90
2023-03-26T03:00:29.053Z,11.90
2023-03-26T03:03:17.156Z,11.70
2023-03-26T03:06:09.056Z,11.70
2023-03-26T03:09:04.970Z,11.60
2023-03-26T03:11:33.740Z,11.50
2023-03-26T03:14:03.363Z,11.50
2023-03-26T03:16:34.111Z,11.50
2023-03-26T03:19:10.691Z,11.50
2023-03-26T03:21:40.537Z,11.50
2023-03-26T03:24:11.699Z,11.50
2023-03-26T03:26:47.932Z,11.50
2023-03-26T03:29:47.169Z,11.50
2023-03-26T03:32:33.435Z,11.50
2023-03-26T03:35:05.355Z,11.40
2023-03-26T03:37:33.369Z,11.40
2023-03-26T03:40:01.842Z,11.40
2023-03-26T03:42:33.405Z,11.40
2023-03-26T03:45:07.278Z,11.40
2023-03-26T03:47:57.233Z,11.40
2023-03-26T03:50:36.678Z,11.40
2023-03-26T03:53:25.908Z,11.40
2023-03-26T03:55:57.434Z,11.40
2023-03-26T03:58:36.675Z,11.40
2023-03-26T04:01:15.217Z,11.40
2023-03-26T04:03:58.127Z,11.40
2023-03-26T04:06:36.809Z,11.40
2023-03-26T04:09:05.157Z,11.30
2023-03-26T04:11:33.427Z,11.30
2023-03-26T04:14:21.671Z,11.30
2023-03-26T04:16:59.980Z,11.30
2023-03-26T04:19:30.382Z,11.30
2023-03-26T04:22:02.700Z,11.30
2023-03-26T04:24:38.300Z,11.30
2023-03-26T04:27:32.463Z,11.30
2023-03-26T04:30:20.671Z,11.30
2023-03-26T04:32:58.466Z,11.30
2023-03-26T04:35:30.380Z,11.30
2023-03-26T04:37:58.454Z,11.30
2023-03-26T04:40:31.558Z,11.30
2023-03-26T04:42:59.892Z,11.40
2023-03-26T04:45:56.587Z,11.30
2023-03-26T04:48:28.596Z,11.30
2023-03-26T04:50:57.178Z,11.40
2023-03-26T04:53:26.310Z,11.40
2023-03-26T04:56:26.815Z,11.40
2023-03-26T04:59:18.599Z,11.40
2023-03-26T05:01:47.157Z,11.30
2023-03-26T05:04:18.623Z,11.30
2023-03-26T05:06:46.991Z,11.40
2023-03-26T05:09:27.948Z,11.40
2023-03-26T05:12:14.393Z,11.40
2023-03-26T05:15:00.262Z,11.40
2023-03-26T05:17:48.599Z,11.30
2023-03-26T05:20:31.215Z,11.40
2023-03-26T05:23:00.101Z,11.40
2023-03-26T05:25:31.537Z,11.40
2023-03-26T05:28:01.495Z,11.40
2023-03-26T05:30:47.916Z,11.40
2023-03-26T05:33:17.786Z,11.40
2023-03-26T05:36:02.265Z,11.40
2023-03-26T05:38:32.383Z,11.40
2023-03-26T05:41:03.547Z,11.40
2023-03-26T05:43:32.396Z,11.30
2023-03-26T05:46:16.608Z,11.40
2023-03-26T05:48:45.290Z,11.30
2023-03-26T05:51:16.524Z,11.40
2023-03-26T05:53:52.500Z,11.30
2023-03-26T05:56:43.608Z,11.40
2023-03-26T05:59:30.323Z,11.30
2023-03-26T06:02:18.774Z,11.30
2023-03-26T06:05:12.543Z,11.30
2023-03-26T06:08:09.657Z,11.30
2023-03-26T06:10:40.007Z,11.30
2023-03-26T06:13:08.578Z,11.30
2023-03-26T06:15:40.407Z,11.30
2023-03-26T06:18:17.840Z,11.30
2023-03-26T06:21:05.436Z,11.30
2023-03-26T06:23:50.032Z,11.30
2023-03-26T06:26:37.145Z,11.30
2023-03-26T06:29:23.216Z,11.30
2023-03-26T06:31:51.141Z,11.30
2023-03-26T06:34:22.816Z,11.40
2023-03-26T06:36:52.576Z,11.30
2023-03-26T06:39:23.392Z,11.40
2023-03-26T06:42:20.849Z,11.40
2023-03-26T06:45:33.505Z,11.40
2023-03-26T06:48:20.001Z,11.40
2023-03-26T06:51:11.807Z,11.40
2023-03-26T06:53:59.680Z,11.50
2023-03-26T06:57:01.089Z,11.60
2023-03-26T06:59:51.069Z,11.50
2023-03-26T07:02:37.688Z,11.50
2023-03-26T07:05:24.998Z,11.60
2023-03-26T07:08:31.946Z,11.60
2023-03-26T07:11:35.229Z,11.60
2023-03-26T07:14:33.382Z,11.70
2023-03-26T07:17:10.943Z,11.80
2023-03-26T07:19:54.290Z,11.80
2023-03-26T07:22:26.791Z,11.80
2023-03-26T07:25:15.645Z,11.80
2023-03-26T07:28:13.320Z,11.80
2023-03-26T07:31:28.052Z,11.80
2023-03-26T07:34:24.320Z,11.80
2023-03-26T07:37:31.062Z,11.80
2023-03-26T07:40:47.103Z,11.80
2023-03-26T07:44:17.144Z,11.80
2023-03-26T07:47:18.360Z,11.90
2023-03-26T07:50:07.740Z,11.90
2023-03-26T07:52:53.587Z,12.00
2023-03-26T07:55:34.428Z,12.00
2023-03-26T07:58:47.440Z,12.00
2023-03-26T08:01:46.917Z,12.10
2023-03-26T08:04:36.951Z,12.10
2023-03-26T08:07:35.915Z,12.10
2023-03-26T08:10:28.399Z,12.20
2023-03-26T08:13:17.376Z,12.20
2023-03-26T08:15:53.678Z,12.20
2023-03-26T08:18:39.135Z,12.30
2023-03-26T08:21:13.892Z,12.20
2023-03-26T08:23:57.688Z,12.20
2023-03-26T08:26:32.148Z,12.20
2023-03-26T08:29:11.318Z,12.30
2023-03-26T08:31:42.212Z,12.30
2023-03-26T08:34:13.474Z,12.30
2023-03-26T08:36:43.075Z,12.30
2023-03-26T08:39:11.955Z,12.30
2023-03-26T08:42:14.695Z,12.30
2023-03-26T08:45:28.699Z,12.30
2023-03-26T08:48:37.800Z,12.30
2023-03-26T08:51:41.599Z,12.30
2023-03-26T08:54:39.539Z,12.30
2023-03-26T08:57:30.524Z,12.30
2023-03-26T09:00:43.616Z,12.20
2023-03-26T09:03:41.226Z,12.20
2023-03-26T09:06:38.718Z,12.20
2023-03-26T09:09:40.449Z,12.10
2023-03-26T09:12:37.174Z,12.10
2023-03-26T09:15:28.580Z,12.10
2023-03-26T09:18:51.871Z,12.10
2023-03-26T09:21:39.654Z,12.10
2023-03-26T09:24:36.883Z,12.00
2023-03-26T09:27:31.316Z,12.00
2023-03-26T09:30:22.463Z,11.90
2023-03-26T09:33:11.706Z,11.80
2023-03-26T09:35:54.667Z,11.80
2023-03-26T09:38:44.528Z,11.80
2023-03-26T09:41:17.870Z,11.70
2023-03-26T09:44:26.106Z,11.70
2023-03-26T09:47:23.170Z,11.70
2023-03-26T09:49:55.303Z,11.70
2023-03-26T09:52:51.110Z,11.70
2023-03-26T09:55:34.451Z,11.70
2023-03-26T09:58:16.866Z,11.70
2023-03-26T10:00:50.520Z,11.60
2023-03-26T10:03:31.169Z,11.60
2023-03-26T10:06:23.792Z,11.60
2023-03-26T10:09:11.382Z,11.50
2023-03-26T10:11:57.299Z,11.60
2023-03-26T10:14:33.603Z,11.60
2023-03-26T10:17:15.428Z,11.70
2023-03-26T10:19:58.232Z,11.80
2023-03-26T10:22:39.487Z,11.90
2023-03-26T10:25:23.391Z,12.10
2023-03-26T10:28:05.751Z,12.20
2023-03-26T10:30:56.653Z,12.30
2023-03-26T10:33:32.387Z,12.50
2023-03-26T10:36:29.871Z,12.50
2023-03-26T10:39:35.980Z,12.60
2023-03-26T10:42:16.945Z,12.70
2023-03-26T10:45:11.155Z,12.80
2023-03-26T10:47:55.686Z,12.90
2023-03-26T10:50:50.781Z,13.10
2023-03-26T10:53:33.159Z,13.20
2023-03-26T10:56:10.752Z,13.20
2023-03-26T10:58:48.366Z,13.30
2023-03-26T11:01:25.541Z,13.40
2023-03-26T11:03:56.582Z,13.40
2023-03-26T11:06:38.735Z,13.50
2023-03-26T11:09:18.621Z,13.50
2023-03-26T11:11:54.828Z,13.70
2023-03-26T11:14:34.844Z,13.80
2023-03-26T11:17:40.841Z,13.90
2023-03-26T11:20:10.906Z,14.00
2023-03-26T11:22:51.642Z,14.20
2023-03-26T11:25:31.230Z,14.30
2023-03-26T11:28:17.936Z,14.30
2023-03-26T11:30:53.577Z,14.20
2023-03-26T11:33:25.928Z,14.10
2023-03-26T11:36:06.407Z,14.20
2023-03-26T11:38:38.530Z,14.00
2023-03-26T11:41:16.706Z,13.90
2023-03-26T11:44:05.419Z,13.80
2023-03-26T11:46:44.406Z,13.70
2023-03-26T11:49:15.556Z,13.70
2023-03-26T11:51:44.990Z,13.70
2023-03-26T11:54:14.703Z,13.70
2023-03-26T11:57:06.088Z,13.70
2023-03-26T11:59:53.324Z,13.80
2023-03-26T12:02:32.671Z,13.80
2023-03-26T12:05:20.447Z,13.90
2023-03-26T12:07:54.204Z,14.00
2023-03-26T12:10:28.053Z,14.20
2023-03-26T12:13:01.234Z,14.30
2023-03-26T12:15:31.571Z,14.50
2023-03-26T12:18:18.492Z,14.60
2023-03-26T12:20:46.538Z,14.70
2023-03-26T12:23:38.750Z,14.80
2023-03-26T12:26:15.423Z,14.80
2023-03-26T12:28:50.128Z,14.80
2023-03-26T12:31:20.139Z,14.70
2023-03-26T12:34:06.237Z,14.60
2023-03-26T12:36:35.790Z,14.50
2023-03-26T12:40:10.039Z,14.50
2023-03-26T12:44:50.583Z,14.40
2023-03-26T12:45:22.374Z,14.30
2023-03-26T12:48:01.145Z,14.20
2023-03-26T12:50:47.492Z,14.10
2023-03-26T12:53:33.829Z,14.10
2023-03-26T12:56:13.465Z,14.00
2023-03-26T12:59:01.730Z,14.00
2023-03-26T13:01:41.756Z,14.00
2023-03-26T13:04:27.519Z,14.00
2023-03-26T13:07:00.567Z,13.90
2023-03-26T13:09:43.561Z,13.90
2023-03-26T13:12:24.395Z,13.90
2023-03-26T13:15:17.775Z,13.80
2023-03-26T13:18:04.196Z,13.70
2023-03-26T13:20:45.482Z,13.60
2023-03-26T13:23:23.303Z,13.50
2023-03-26T13:26:02.134Z,13.40
2023-03-26T13:28:40.383Z,13.30
2023-03-26T13:31:14.910Z,13.30
2023-03-26T13:33:53.728Z,13.20
2023-03-26T13:36:27.257Z,13.10
2023-03-26T13:39:09.994Z,13.10
2023-03-26T13:41:52.486Z,13.10
2023-03-26T13:44:33.147Z,13.00
2023-03-26T13:47:06.006Z,13.00
2023-03-26T13:49:41.892Z,12.90
2023-03-26T13:52:14.375Z,12.90
2023-03-26T13:54:46.672Z,12.80
2023-03-26T13:57:22.317Z,12.70
2023-03-26T13:59:57.326Z,12.70
2023-03-26T14:02:32.192Z,12.70
2023-03-26T14:05:08.007Z,12.60
2023-03-26T14:07:41.702Z,12.60
2023-03-26T14:10:14.042Z,12.50
2023-03-26T14:12:51.439Z,12.50
2023-03-26T14:15:27.608Z,12.50
2023-03-26T14:18:06.195Z,12.50
2023-03-26T14:21:02.232Z,12.50
2023-03-26T14:23:49.944Z,12.40
2023-03-26T14:26:32.775Z,12.40
2023-03-26T14:29:32.617Z,12.50
2023-03-26T14:32:24.307Z,12.50
2023-03-26T14:35:05.931Z,12.50
2023-03-26T14:37:53.769Z,12.60
2023-03-26T14:40:49.047Z,12.70
2023-03-26T14:43:38.469Z,12.70
2023-03-26T14:46:20.606Z,12.70
2023-03-26T14:49:06.253Z,12.80
2023-03-26T14:51:48.446Z,12.80
2023-03-26T14:54:21.818Z,12.80
2023-03-26T14:57:06.345Z,12.80
2023-03-26T15:00:15.786Z,12.80
2023-03-26T15:03:18.883Z,12.80
2023-03-26T15:06:23.382Z,12.90
2023-03-26T15:09:34.103Z,12.90
2023-03-26T15:12:14.004Z,12.90
2023-03-26T15:15:12.724Z,12.90
2023-03-26T15:18:18.036Z,12.90
2023-03-26T15:21:25.548Z,12.90
2023-03-26T15:24:23.615Z,13.00
2023-03-26T15:27:33.400Z,13.00
2023-03-26T15:30:49.150Z,13.00
2023-03-26T15:33:53.301Z,13.10
2023-03-26T15:36:39.138Z,13.10
2023-03-26T15:39:59.458Z,13.10
2023-03-26T15:42:38.441Z,13.10
2023-03-26T15:45:38.257Z,13.10
2023-03-26T15:48:31.368Z,13.10
2023-03-26T15:51:10.062Z,13.10
2023-03-26T15:53:44.718Z,13.10
2023-03-26T15:56:26.987Z,13.10
2023-03-26T15:59:05.225Z,13.00
2023-03-26T16:01:46.796Z,13.00
2023-03-26T16:04:26.373Z,13.00
2023-03-26T16:07:03.363Z,12.90
2023-03-26T16:09:45.919Z,12.90
2023-03-26T16:12:30.897Z,12.90
2023-03-26T16:15:29.524Z,12.80
2023-03-26T16:18:29.271Z,12.80
2023-03-26T16:21:47.309Z,12.80
2023-03-26T16:24:27.849Z,12.80
2023-03-26T16:27:26.232Z,12.80
2023-03-26T16:30:31.698Z,12.80
2023-03-26T16:33:13.941Z,12.80
2023-03-26T16:36:14.349Z,12.90
2023-03-26T16:38:50.164Z,12.80
2023-03-26T16:41:22.085Z,12.90
2023-03-26T16:44:00.360Z,12.90
2023-03-26T16:46:43.283Z,12.90
2023-03-26T16:49:27.397Z,12.90
2023-03-26T16:52:07.552Z,12.80
2023-03-26T16:54:46.150Z,12.90
2023-03-26T16:57:28.285Z,12.90
2023-03-26T17:00:30.032Z,12.90
2023-03-26T17:03:12.921Z,12.80
2023-03-26T17:06:03.686Z,12.80
2023-03-26T17:08:42.072Z,12.80
2023-03-26T17:11:25.213Z,12.70
2023-03-26T17:14:04.360Z,12.70
2023-03-26T17:16:36.746Z,12.70
2023-03-26T17:19:15.065Z,12.60
2023-03-26T17:21:52.345Z,12.60
2023-03-26T17:24:31.262Z,12.60
2023-03-26T17:27:37.572Z,12.50
2023-03-26T17:30:42.983Z,12.60
2023-03-26T17:33:21.403Z,12.50
2023-03-26T17:35:51.048Z,12.40
2023-03-26T17:38:56.724Z,12.40
2023-03-26T17:41:51.491Z,12.40
2023-03-26T17:44:47.013Z,12.30
2023-03-26T17:47:41.306Z,12.30
2023-03-26T17:50:15.514Z,12.20
2023-03-26T17:52:54.573Z,12.20
2023-03-26T17:55:25.764Z,12.20
2023-03-26T17:57:57.436Z,12.10
2023-03-26T18:00:30.137Z,12.10
2023-03-26T18:03:03.850Z,12.10
2023-03-26T18:05:34.158Z,12.00
2023-03-26T18:08:42.665Z,12.00
2023-03-26T18:11:52.753Z,12.00
2023-03-26T18:14:47.688Z,12.00
2023-03-26T18:17:15.737Z,11.90
2023-03-26T18:19:54.037Z,11.90
2023-03-26T18:22:25.633Z,11.90
2023-03-26T18:24:59.798Z,11.80
2023-03-26T18:27:35.959Z,11.80
2023-03-26T18:30:16.164Z,11.80
2023-03-26T18:32:52.502Z,11.80
2023-03-26T18:35:24.082Z,11.70
2023-03-26T18:37:55.786Z,11.70
2023-03-26T18:40:26.216Z,11.70
2023-03-26T18:42:56.984Z,11.70
2023-03-26T18:45:28.877Z,11.60
2023-03-26T18:47:59.159Z,11.60
2023-03-26T18:50:31.001Z,11.60
2023-03-26T18:53:01.029Z,11.60
2023-03-26T18:55:30.439Z,11.60
2023-03-26T18:57:59.157Z,11.50
2023-03-26T19:00:30.487Z,11.50
2023-03-26T19:03:05.390Z,11.50
2023-03-26T19:05:36.524Z,11.50
2023-03-26T19:08:07.542Z,11.50
2023-03-26T19:10:36.018Z,11.50
2023-03-26T19:13:05.274Z,11.50
2023-03-26T19:15:36.845Z,11.50
2023-03-26T19:18:11.846Z,11.50
2023-03-26T19:20:44.743Z,11.50
2023-03-26T19:23:15.652Z,11.50
2023-03-26T19:25:47.486Z,11.50
2023-03-26T19:28:22.990Z,11.50
2023-03-26T19:30:57.442Z,11.50
2023-03-26T19:33:33.879Z,11.50
2023-03-26T19:36:05.922Z,11.40
2023-03-26T19:38:42.687Z,11.40
2023-03-26T19:41:21.588Z,11.40
2023-03-26T19:43:51.089Z,11.40
2023-03-26T19:46:20.575Z,11.40
2023-03-26T19:48:49.885Z,11.40
2023-03-26T19:51:22.441Z,11.40
2023-03-26T19:53:55.260Z,11.30
2023-03-26T19:56:23.839Z,11.30
2023-03-26T19:58:52.328Z,11.30
2023-03-26T20:01:22.776Z,11.30
2023-03-26T20:03:52.867Z,11.20
2023-03-26T20:06:31.027Z,11.20
2023-03-26T20:09:06.479Z,11.20
2023-03-26T20:11:39.092Z,11.10
2023-03-26T20:14:13.952Z,11.10
2023-03-26T20:16:43.849Z,11.10
2023-03-26T20:19:14.086Z,11.10
2023-03-26T20:21:44.809Z,11.10
2023-03-26T20:24:15.640Z,11.10
2023-03-26T20:26:43.772Z,11.00
2023-03-26T20:29:12.900Z,11.00
2023-03-26T20:31:41.954Z,11.00
2023-03-26T20:34:16.886Z,11.00
2023-03-26T20:36:46.760Z,11.00
2023-03-26T20:39:15.353Z,10.90
2023-03-26T20:41:47.293Z,10.90
2023-03-26T20:44:17.301Z,10.80
2023-03-26T20:46:45.999Z,10.80
2023-03-26T20:49:15.044Z,10.80
2023-03-26T20:51:44.668Z,10.70
2023-03-26T20:54:17.833Z,10.70
2023-03-26T20:56:47.614Z,10.70
2023-03-26T20:59:21.983Z,10.70
2023-03-26T21:01:51.254Z,10.60
2023-03-26T21:04:20.118Z,10.60
2023-03-26T21:06:49.059Z,10.60
2023-03-26T21:09:23.695Z,10.60
2023-03-26T21:11:57.221Z,10.50
2023-03-26T21:14:28.851Z,10.50
2023-03-26T21:16:57.824Z,10.50
2023-03-26T21:19:26.936Z,10.50
2023-03-26T21:22:12.695Z,10.50
2023-03-26T21:25:02.173Z,10.50
2023-03-26T21:27:35.939Z,10.50
2023-03-26T21:30:07.864Z,10.40
2023-03-26T21:32:36.582Z,10.40
2023-03-26T21:35:05.574Z,10.40
2023-03-26T21:37:34.242Z,10.40
2023-03-26T21:40:13.916Z,10.40
2023-03-26T21:42:42.882Z,10.30
2023-03-26T21:45:12.050Z,10.30
2023-03-26T21:47:41.198Z,10.30
2023-03-26T21:50:12.484Z,10.20
2023-03-26T21:52:47.178Z,10.20
2023-03-26T21:55:19.069Z,10.20
2023-03-26T21:58:22.820Z,10.10
2023-03-26T22:01:05.882Z,10.10
2023-03-26T22:03:42.084Z,10.10
2023-03-26T22:06:14.514Z,10.00
2023-03-26T22:08:42.896Z,10.00
2023-03-26T22:11:13.482Z,9.90
2023-03-26T22:13:42.302Z,9.90
2023-03-26T22:16:11.729Z,9.90
2023-03-26T22:18:40.071Z,9.80
2023-03-26T22:21:08.218Z,9.80
2023-03-26T22:23:38.319Z,9.70
2023-03-26T22:26:07.209Z,9.60
2023-03-26T22:28:37.150Z,9.50
2023-03-26T22:31:09.403Z,9.50
2023-03-26T22:33:37.550Z,9.30
2023-03-26T22:36:06.135Z,9.30
2023-03-26T22:38:53.779Z,9.20
2023-03-26T22:41:22.511Z,9.00
2023-03-26T22:43:53.012Z,9.00
2023-03-26T22:46:21.005Z,8.90
2023-03-26T22:48:49.480Z,8.80
2023-03-26T22:51:17.865Z,8.70
2023-03-26T22:53:46.348Z,8.70
2023-03-26T22:56:15.831Z,8.60
2023-03-26T22:58:44.142Z,8.50
2023-03-26T23:01:17.884Z,8.50
2023-03-26T23:03:46.548Z,8.40
2023-03-26T23:06:15.320Z,8.30
2023-03-26T23:08:43.347Z,8.30
2023-03-26T23:11:13.673Z,8.20
2023-03-26T23:13:42.391Z,8.20
2023-03-26T23:16:11.485Z,8.10
2023-03-26T23:18:42.188Z,8.10
2023-03-26T23:21:14.734Z,8.00
2023-03-26T23:23:42.866Z,8.00
2023-03-26T23:26:10.937Z,7.90
2023-03-26T23:28:41.024Z,7.90
2023-03-26T23:31:10.765Z,7.80
2023-03-26T23:33:46.564Z,7.80
2023-03-26T23:36:17.968Z,7.80
2023-03-26T23:38:47.803Z,7.80
2023-03-26T23:41:17.270Z,7.70
2023-03-26T23:43:54.549Z,7.70
2023-03-26T23:46:24.343Z,7.70
2023-03-26T23:48:55.106Z,7.70
2023-03-26T23:51:23.948Z,7.60
2023-03-26T23:53:52.652Z,7.70
2023-03-26T23:56:20.989Z,7.60
2023-03-26T23:58:50.707Z,7.60
